Time;durP1;ratioP1;P1;durP2;ratioP2;P2;SDS_P1;SDS_P2;PMS_P1;PMS_P2;Temp;Humidity;BMP_temperature;BMP_pressure;BME280_temperature;BME280_humidity;BME280_pressure;Samples;Min_cycle;Max_cycle;Signal;HPM_P1;HPM_P2
2021/08/20 05:01:33;;;;;;;4.40;4.00;;;;;;;25.30;50.70;94828.44;5618395;23;20153;-78
2021/08/20 05:03:59;;;;;;;4.15;3.85;;;;;;;25.69;49.47;94830.28;4979809;28;20117;-77
2021/08/20 05:06:24;;;;;;;3.58;3.30;;;;;;;25.89;49.84;94828.66;4991094;28;20026;-78
2021/08/20 05:08:50;;;;;;;3.25;3.00;;;;;;;26.87;47.06;94834.19;4988870;28;20026;-77
2021/08/20 05:11:15;;;;;;;3.58;3.38;;;;;;;26.65;48.34;94843.28;4989859;28;20022;-77
2021/08/20 05:13:40;;;;;;;3.75;3.55;;;;;;;27.35;46.25;94835.19;4988748;28;20026;-76
2021/08/20 05:16:06;;;;;;;4.93;3.92;;;;;;;26.93;47.91;94836.53;4990772;28;20517;-77
2021/08/20 05:18:32;;;;;;;4.40;4.10;;;;;;;27.93;44.93;94844.03;4989596;28;20502;-78
2021/08/20 05:20:57;;;;;;;5.18;4.30;;;;;;;28.93;42.63;94839.41;4982241;28;20041;-78
2021/08/20 05:23:23;;;;;;;3.60;3.30;;;;;;;29.32;42.11;94843.69;5006298;28;20037;-78
2021/08/20 05:25:48;;;;;;;3.97;3.58;;;;;;;30.12;40.62;94841.53;5006415;28;20440;-77
2021/08/20 05:28:13;;;;;;;3.67;3.35;;;;;;;30.94;38.33;94841.53;4990525;28;20475;-78
2021/08/20 05:30:39;;;;;;;3.92;3.55;;;;;;;30.41;39.14;94852.78;5006254;28;20041;-77
2021/08/20 05:33:05;;;;;;;3.42;3.13;;;;;;;30.74;38.23;94850.78;4990608;28;20022;-78
2021/08/20 05:35:30;;;;;;;3.33;3.05;;;;;;;30.79;38.53;94843.44;4972874;28;20053;-77
2021/08/20 05:37:56;;;;;;;3.85;3.35;;;;;;;31.06;38.02;94847.19;5006844;28;20088;-78
2021/08/20 05:40:21;;;;;;;4.00;3.60;;;;;;;30.79;38.49;94835.41;4973891;28;20044;-78
2021/08/20 05:42:47;;;;;;;3.70;3.40;;;;;;;32.02;35.82;94848.38;4988216;28;20109;-78
2021/08/20 05:45:13;;;;;;;4.15;3.75;;;;;;;30.24;39.39;94847.22;4971039;28;20023;-78
2021/08/20 05:47:38;;;;;;;3.50;3.25;;;;;;;31.15;37.56;94845.38;4959142;28;20113;-78
2021/08/20 05:50:05;;;;;;;3.47;2.95;;;;;;;32.18;36.13;94846.91;4950567;28;20023;-77
2021/08/20 05:52:32;;;;;;;3.58;3.30;;;;;;;31.51;37.36;94848.03;4977419;28;20046;-78
2021/08/20 05:54:58;;;;;;;3.92;3.10;;;;;;;32.35;35.53;94846.19;4968302;28;20508;-78
2021/08/20 05:57:24;;;;;;;3.28;3.08;;;;;;;33.01;35.22;94842.41;4951207;28;20031;-77
2021/08/20 05:59:49;;;;;;;3.17;2.97;;;;;;;32.13;36.07;94849.72;4967473;28;20535;-77
2021/08/20 06:02:15;;;;;;;3.67;3.38;;;;;;;32.04;36.29;94846.22;4968405;28;20574;-78
2021/08/20 06:04:40;;;;;;;5.97;3.42;;;;;;;29.96;40.03;94843.69;4968040;28;20555;-78
2021/08/20 06:07:06;;;;;;;3.50;3.20;;;;;;;26.71;46.23;94852.84;4975300;28;20069;-78
2021/08/20 06:09:32;;;;;;;3.35;3.05;;;;;;;27.77;45.19;94846.81;4968889;28;20041;-78
2021/08/20 06:11:57;;;;;;;3.67;3.15;;;;;;;28.34;44.09;94847.09;4987837;28;20026;-78
2021/08/20 06:14:23;;;;;;;3.80;3.40;;;;;;;26.72;47.43;94851.78;4983424;28;20046;-78
2021/08/20 06:16:54;;;;;;;3.40;2.72;;;;;;;27.66;44.13;94845.34;4992428;28;20455;-81
2021/08/20 06:19:20;;;;;;;3.33;3.03;;;;;;;29.38;41.63;94843.31;4971571;28;20023;-79
2021/08/20 06:21:45;;;;;;;3.42;3.13;;;;;;;33.20;34.19;94832.19;4954748;28;20053;-77
2021/08/20 06:24:11;;;;;;;3.65;3.45;;;;;;;33.48;34.15;94829.19;4961370;28;20038;-77
2021/08/20 06:26:36;;;;;;;3.05;2.90;;;;;;;33.80;33.47;94837.56;4993019;28;20018;-77
2021/08/20 06:29:01;;;;;;;3.40;3.10;;;;;;;32.74;34.24;94835.44;4983516;28;20034;-78
2021/08/20 06:31:27;;;;;;;4.47;4.15;;;;;;;33.92;33.15;94842.28;4932996;28;20026;-79
2021/08/20 06:33:53;;;;;;;4.85;3.40;;;;;;;32.87;34.93;94831.84;4987669;28;20512;-78
2021/08/20 06:36:19;;;;;;;4.57;3.60;;;;;;;32.04;35.07;94837.38;4986916;28;20480;-78
2021/08/20 06:38:44;;;;;;;5.05;4.57;;;;;;;32.97;34.65;94835.31;4952774;28;20054;-80
2021/08/20 06:41:10;;;;;;;4.03;3.10;;;;;;;30.18;38.92;94829.69;4987613;28;20472;-78
2021/08/20 06:43:35;;;;;;;6.32;3.70;;;;;;;26.70;45.46;94830.00;4985821;28;20023;-78
2021/08/20 06:46:01;;;;;;;3.70;3.42;;;;;;;26.64;47.12;94836.41;4969989;28;20030;-78
2021/08/20 06:48:26;;;;;;;3.20;2.92;;;;;;;25.93;47.95;94829.72;4985742;28;20026;-79
2021/08/20 06:50:53;;;;;;;3.38;3.17;;;;;;;25.65;49.33;94834.53;4970518;28;20026;-79
2021/08/20 06:53:18;;;;;;;3.28;3.08;;;;;;;26.69;47.84;94836.38;4986050;28;20030;-79
2021/08/20 06:55:43;;;;;;;5.07;4.68;;;;;;;27.73;44.04;94837.03;4987099;28;20033;-81
2021/08/20 06:58:09;;;;;;;4.60;4.22;;;;;;;27.59;44.37;94838.72;4969843;28;20022;-80
2021/08/20 07:00:35;;;;;;;3.25;2.97;;;;;;;27.33;45.60;94830.13;4949363;28;20081;-77
2021/08/20 07:03:00;;;;;;;3.03;2.83;;;;;;;27.29;45.21;94831.78;4947253;29;20050;-82
2021/08/20 07:05:26;;;;;;;3.00;2.80;;;;;;;27.05;45.24;94830.88;4929672;29;20034;-80
2021/08/20 07:07:51;;;;;;;3.22;3.00;;;;;;;28.77;41.48;94824.69;4960501;28;20026;-80
2021/08/20 10:13:20;;;;;;;5.22;4.82;;;;;;;28.84;41.79;94750.44;5146899;27;20396;-75
2021/08/20 10:15:45;;;;;;;5.20;4.82;;;;;;;29.19;40.17;94743.75;5127830;27;20034;-77
2021/08/20 10:18:15;;;;;;;5.30;4.90;;;;;;;28.67;40.76;94740.28;5127138;27;20023;-76
2021/08/20 10:20:41;;;;;;;5.55;5.15;;;;;;;28.93;40.29;94743.38;5123772;27;20549;-78
2021/08/20 10:23:06;;;;;;;5.80;5.25;;;;;;;29.13;40.16;94744.94;5143870;27;20015;-75
2021/08/20 10:25:32;;;;;;;5.80;5.18;;;;;;;30.26;39.10;94743.44;5129169;27;20076;-78
2021/08/20 10:27:58;;;;;;;5.32;4.93;;;;;;;30.06;40.08;94738.50;5143615;27;20035;-78
2021/08/20 10:30:24;;;;;;;6.22;5.68;;;;;;;29.07;40.28;94735.41;5124627;27;20027;-77
2021/08/20 10:33:03;;;;;;;5.38;4.97;;;;;;;28.51;41.48;94735.44;5126320;27;20019;-79
2021/08/20 10:35:54;;;;;;;7.28;5.80;;;;;;;27.68;42.20;94734.00;5114695;27;20038;-77
2021/08/20 10:38:38;;;;;;;6.15;5.65;;;;;;;28.10;42.57;94743.94;5126225;27;20117;-78
2021/08/20 10:41:18;;;;;;;5.53;5.00;;;;;;;28.28;42.91;94737.09;5140253;27;20031;-78
2021/08/20 10:43:52;;;;;;;5.90;5.50;;;;;;;28.39;41.87;94727.84;5141552;27;20026;-76
2021/08/20 10:49:14;;;;;;;6.10;5.50;;;;;;;28.91;42.47;94728.75;5145089;27;20168;-76
2021/08/20 10:51:49;;;;;;;5.95;5.35;;;;;;;29.03;40.76;94721.06;5146399;27;20031;-77
2021/08/20 10:54:26;;;;;;;6.05;5.55;;;;;;;28.81;41.05;94718.22;5144798;27;20027;-79
2021/08/20 10:56:52;;;;;;;5.90;5.38;;;;;;;29.51;40.61;94713.63;5145721;27;20027;-76
2021/08/20 10:59:46;;;;;;;7.70;5.00;;;;;;;29.53;39.93;94706.09;5144778;27;20094;-75
2021/08/20 11:02:21;;;;;;;5.45;5.10;;;;;;;29.86;40.11;94706.84;5136782;27;20084;-76
2021/08/20 11:04:55;;;;;;;6.00;5.60;;;;;;;28.85;41.00;94704.03;5123863;28;20084;-76
2021/08/20 11:07:36;;;;;;;6.55;5.93;;;;;;;28.21;42.45;94705.47;5124244;27;20031;-78
2021/08/20 11:10:27;;;;;;;5.93;5.47;;;;;;;28.71;41.73;94698.63;5124273;27;20030;-77
2021/08/20 11:12:55;;;;;;;5.40;4.90;;;;;;;28.26;42.59;94699.25;5118957;27;20113;-79
2021/08/20 11:15:20;;;;;;;6.15;5.65;;;;;;;28.84;40.53;94698.97;5106253;27;20028;-78
2021/08/20 11:18:01;;;;;;;5.60;5.20;;;;;;;28.92;41.37;94703.66;5110264;28;20541;-78
2021/08/20 11:20:27;;;;;;;6.07;5.57;;;;;;;28.33;42.63;94704.22;5108488;28;20643;-76
2021/08/20 11:23:05;;;;;;;6.35;5.78;;;;;;;28.05;42.00;94697.91;5109297;28;20110;-77
2021/08/20 11:25:39;;;;;;;5.88;5.32;;;;;;;28.18;43.22;94690.03;5091462;28;20063;-78
2021/08/20 11:28:07;;;;;;;6.93;6.25;;;;;;;28.37;42.62;94698.03;5089655;28;20031;-78
2021/08/20 11:30:36;;;;;;;5.97;5.47;;;;;;;28.76;41.57;94682.56;5091765;28;20028;-78
2021/08/20 11:33:08;;;;;;;6.35;5.32;;;;;;;28.44;42.19;94690.50;5069033;28;20060;-79
2021/08/20 11:35:34;;;;;;;6.45;6.05;;;;;;;27.85;42.13;94684.84;5106633;28;20038;-80
2021/08/20 11:37:59;;;;;;;6.50;5.90;;;;;;;27.74;42.94;94684.94;5089181;28;20029;-79
2021/08/20 11:40:24;;;;;;;6.03;5.63;;;;;;;28.11;41.80;94684.28;5097292;28;20028;-78
2021/08/20 11:43:09;;;;;;;6.22;5.72;;;;;;;28.78;41.50;94677.72;5109855;28;20035;-79
2021/08/20 11:45:35;;;;;;;6.22;5.63;;;;;;;28.94;41.00;94677.47;5108534;28;20058;-79
2021/08/20 11:48:01;;;;;;;6.88;5.90;;;;;;;28.49;41.42;94670.94;5076079;28;20052;-79
2021/08/20 11:50:27;;;;;;;6.28;5.68;;;;;;;28.67;41.26;94668.28;5091959;28;20106;-78
2021/08/20 11:52:53;;;;;;;5.82;5.43;;;;;;;29.26;40.07;94669.47;5126764;27;20027;-79
2021/08/20 11:55:18;;;;;;;6.25;5.75;;;;;;;29.27;40.75;94657.72;5143836;27;20072;-79
2021/08/20 11:57:44;;;;;;;6.28;5.82;;;;;;;28.99;40.67;94658.72;5125190;27;20447;-79
2021/08/20 12:00:10;;;;;;;6.65;5.95;;;;;;;28.58;41.78;94656.66;5126645;27;20480;-79
2021/08/20 12:02:36;;;;;;;5.85;5.35;;;;;;;28.28;41.96;94659.81;5124501;27;20496;-78
2021/08/20 12:05:34;;;;;;;5.93;5.43;;;;;;;27.85;43.15;94659.00;5109888;28;20036;-79
2021/08/20 12:08:16;;;;;;;6.22;5.72;;;;;;;28.57;40.85;94655.09;5075252;28;20093;-79
2021/08/20 12:10:46;;;;;;;6.30;5.80;;;;;;;28.75;40.71;94651.63;5108373;28;20092;-79
2021/08/20 12:13:13;;;;;;;6.20;5.70;;;;;;;29.35;39.91;94654.34;5109924;28;20566;-79
2021/08/20 12:15:38;;;;;;;6.03;5.50;;;;;;;29.45;39.92;94645.38;5107787;28;20019;-79
2021/08/20 12:18:21;;;;;;;6.38;5.78;;;;;;;29.38;40.02;94650.31;5109358;28;20034;-78
2021/08/20 12:20:46;;;;;;;6.18;5.78;;;;;;;29.63;38.92;94642.63;5107839;28;20404;-79
2021/08/20 12:23:12;;;;;;;6.15;5.75;;;;;;;28.95;40.22;94639.03;5092275;28;20027;-78
2021/08/20 12:25:40;;;;;;;6.18;5.78;;;;;;;29.61;38.91;94643.97;5107172;28;20024;-79
2021/08/20 12:28:18;;;;;;;6.20;5.60;;;;;;;29.59;38.52;94638.16;5107271;28;20020;-79
2021/08/20 12:30:45;;;;;;;6.43;5.93;;;;;;;29.35;39.32;94635.66;5109988;28;20032;-80
2021/08/20 12:33:11;;;;;;;5.95;5.55;;;;;;;29.81;37.71;94639.03;5124155;27;20035;-78
2021/08/20 12:35:37;;;;;;;5.70;5.20;;;;;;;29.95;37.84;94630.25;5110196;28;20445;-79
2021/08/20 12:38:03;;;;;;;6.70;6.20;;;;;;;28.81;38.74;94632.88;5090633;28;20063;-79
2021/08/20 12:40:36;;;;;;;6.70;6.10;;;;;;;28.88;38.91;94630.63;5108219;28;20432;-80
2021/08/20 12:43:02;;;;;;;6.07;5.68;;;;;;;28.22;40.32;94627.09;5108036;28;20400;-79
2021/08/20 12:45:27;;;;;;;6.53;5.93;;;;;;;28.78;39.77;94627.06;5107173;28;20024;-79
2021/08/20 12:48:06;;;;;;;6.28;5.53;;;;;;;29.41;38.80;94621.13;5109062;28;20584;-79
2021/08/20 12:50:41;;;;;;;8.00;6.20;;;;;;;30.13;37.91;94626.63;5107247;28;20058;-79
2021/08/20 12:53:07;;;;;;;5.72;5.32;;;;;;;29.97;37.41;94623.50;5108855;28;20027;-79
2021/08/20 12:55:36;;;;;;;6.63;5.82;;;;;;;29.95;37.76;94620.34;5090688;28;20035;-79
2021/08/20 12:58:02;;;;;;;6.37;5.93;;;;;;;29.97;37.90;94614.69;5104719;28;20024;-78
2021/08/20 13:00:31;;;;;;;6.68;5.57;;;;;;;29.88;37.07;94614.63;5098068;28;20720;-79
2021/08/20 13:02:57;;;;;;;5.82;5.43;;;;;;;29.73;37.09;94618.34;5105739;28;20116;-80
2021/08/20 13:05:22;;;;;;;6.10;5.50;;;;;;;30.26;37.06;94615.13;5108618;28;20614;-80
2021/08/20 13:07:48;;;;;;;5.93;5.45;;;;;;;29.76;38.98;94615.09;5105996;28;20044;-81
2021/08/20 13:10:13;;;;;;;6.03;5.63;;;;;;;29.15;38.80;94612.81;5109757;28;20456;-80
2021/08/20 13:12:39;;;;;;;5.22;4.93;;;;;;;29.08;39.26;94617.75;5108094;28;20082;-79
2021/08/20 13:15:08;;;;;;;5.25;4.93;;;;;;;29.11;39.34;94611.00;5108124;28;20489;-79
2021/08/20 13:17:33;;;;;;;5.93;5.47;;;;;;;29.14;39.23;94610.41;5090859;28;20034;-79
2021/08/20 13:19:59;;;;;;;5.78;5.38;;;;;;;29.08;39.11;94601.72;5107874;28;20019;-78
2021/08/20 13:22:24;;;;;;;5.55;5.15;;;;;;;28.91;39.93;94606.03;5089768;28;20036;-78
2021/08/20 13:24:50;;;;;;;6.22;5.22;;;;;;;28.58;39.85;94606.00;5105750;28;20027;-77
2021/08/20 13:27:15;;;;;;;6.15;5.70;;;;;;;28.55;39.79;94606.59;5090959;28;20019;-80
2021/08/20 13:29:41;;;;;;;6.43;5.93;;;;;;;28.60;40.46;94603.88;5105933;28;20024;-79
2021/08/20 13:32:06;;;;;;;6.38;5.80;;;;;;;28.63;39.81;94597.94;5109223;28;20024;-79
2021/08/20 13:34:32;;;;;;;7.22;6.63;;;;;;;28.69;38.25;94601.34;5106740;28;20548;-79
2021/08/20 13:36:57;;;;;;;6.53;6.03;;;;;;;29.33;38.77;94597.00;5108921;28;20028;-79
2021/08/20 13:39:23;;;;;;;8.15;5.57;;;;;;;29.42;38.43;94595.22;5110998;28;20024;-78
2021/08/20 13:41:48;;;;;;;6.07;5.53;;;;;;;29.47;37.35;94593.28;5106079;28;20519;-78
2021/08/20 13:44:14;;;;;;;5.90;5.40;;;;;;;29.87;36.91;94596.19;5108633;28;20023;-78
2021/08/20 13:46:39;;;;;;;6.63;5.90;;;;;;;30.32;37.31;94592.50;5107606;28;20522;-79
2021/08/20 13:49:05;;;;;;;21.60;6.30;;;;;;;29.87;37.49;94596.19;5107815;28;20043;-78
2021/08/20 13:51:31;;;;;;;6.70;6.30;;;;;;;29.57;37.58;94590.38;5089022;28;20477;-80
2021/08/20 13:53:56;;;;;;;6.60;6.10;;;;;;;29.09;37.60;94594.50;5089779;28;20057;-80
2021/08/20 13:56:22;;;;;;;6.85;6.18;;;;;;;29.75;36.67;94589.47;5108016;28;20044;-80
2021/08/20 13:58:47;;;;;;;6.90;6.30;;;;;;;30.11;36.26;94586.06;5105428;28;20030;-78
2021/08/20 14:01:13;;;;;;;23.88;7.05;;;;;;;30.31;35.63;94593.63;5101192;28;20032;-79
2021/08/20 14:03:39;;;;;;;7.20;6.60;;;;;;;29.85;36.21;94596.53;5085233;28;20382;-82
2021/08/20 14:06:05;;;;;;;10.48;7.22;;;;;;;29.29;36.65;94594.16;5102247;28;20055;-79
2021/08/20 14:08:31;;;;;;;7.03;6.53;;;;;;;30.14;36.12;94590.81;5079066;28;20051;-79
2021/08/20 14:10:56;;;;;;;7.03;6.53;;;;;;;30.53;36.09;94585.63;5103591;28;20024;-79
2021/08/20 14:13:22;;;;;;;6.80;6.20;;;;;;;30.76;36.11;94586.41;5085454;28;20040;-76
2021/08/20 14:15:48;;;;;;;6.40;5.88;;;;;;;30.44;37.41;94587.44;5099665;28;20019;-75
2021/08/20 14:18:14;;;;;;;5.90;5.38;;;;;;;30.15;38.11;94582.47;5108085;28;20028;-80
2021/08/20 14:20:39;;;;;;;6.97;6.38;;;;;;;29.03;39.38;94585.78;5106916;28;20466;-78
2021/08/20 14:23:05;;;;;;;6.57;5.97;;;;;;;28.86;40.09;94576.78;5106746;28;20020;-75
2021/08/20 14:25:30;;;;;;;6.05;5.63;;;;;;;29.18;39.29;94574.06;5102311;28;20039;-78
2021/08/20 14:27:55;;;;;;;8.23;5.90;;;;;;;29.43;39.17;94575.47;5107195;28;20078;-78
2021/08/20 14:30:21;;;;;;;6.18;5.72;;;;;;;29.32;38.89;94572.19;5087657;28;20028;-78
2021/08/20 14:32:46;;;;;;;5.75;5.25;;;;;;;29.22;39.14;94583.03;5089379;28;20172;-78
2021/08/20 14:35:12;;;;;;;6.00;5.60;;;;;;;28.67;40.31;94574.97;5106842;28;20043;-77
2021/08/20 14:37:37;;;;;;;7.07;5.93;;;;;;;28.32;40.37;94524.88;5088146;28;20464;-74
2021/08/20 14:40:03;;;;;;;6.55;6.05;;;;;;;28.54;40.39;94577.56;5105640;28;20023;-79
2021/08/20 14:42:29;;;;;;;6.63;6.13;;;;;;;29.20;40.14;94575.34;5106450;28;20066;-75
2021/08/20 14:44:54;;;;;;;6.63;5.90;;;;;;;29.34;39.57;94575.38;5106904;28;20054;-78
2021/08/20 14:47:20;;;;;;;6.10;5.65;;;;;;;29.34;39.78;94582.59;5103213;28;20062;-80
2021/08/20 14:49:45;;;;;;;6.03;5.30;;;;;;;28.95;40.31;94575.03;5093874;28;20519;-79
2021/08/20 14:52:11;;;;;;;5.53;5.13;;;;;;;28.55;40.29;94571.94;5110596;28;20092;-78
2021/08/20 14:54:36;;;;;;;6.03;5.53;;;;;;;28.59;41.00;94572.94;5109708;28;20076;-77
2021/08/20 14:57:02;;;;;;;6.45;5.95;;;;;;;28.53;39.98;94573.31;5109445;27;20027;-78
2021/08/20 14:59:27;;;;;;;6.18;5.68;;;;;;;28.44;40.67;94570.53;5092159;28;20020;-76
2021/08/20 15:01:53;;;;;;;7.68;5.70;;;;;;;28.82;40.45;94573.91;5093059;28;20031;-75
2021/08/20 15:04:18;;;;;;;6.53;5.90;;;;;;;28.45;41.07;94580.09;5108637;28;20065;-79
2021/08/20 15:06:44;;;;;;;6.97;5.72;;;;;;;28.39;40.09;94580.47;5111343;28;20035;-72
2021/08/20 15:09:10;;;;;;;6.03;5.30;;;;;;;28.40;40.45;94574.06;5108564;28;20473;-81
2021/08/20 15:11:35;;;;;;;6.13;5.47;;;;;;;28.66;41.09;94568.06;5110328;28;20054;-79
2021/08/20 15:14:06;;;;;;;6.82;5.53;;;;;;;28.44;40.98;94573.19;5090784;28;20036;-74
2021/08/20 15:16:32;;;;;;;7.18;6.47;;;;;;;28.16;40.97;94569.63;5107607;28;20613;-77
2021/08/20 15:18:59;;;;;;;6.10;5.60;;;;;;;28.48;41.16;94571.50;5110500;28;20057;-79
2021/08/20 15:21:24;;;;;;;8.95;5.35;;;;;;;28.24;41.63;94565.53;5106718;28;20039;-80
2021/08/20 15:23:50;;;;;;;6.22;5.40;;;;;;;28.14;40.84;94571.00;5110141;28;20023;-75
2021/08/20 15:26:15;;;;;;;6.72;6.13;;;;;;;28.35;41.62;94572.28;5108475;27;20481;-79
2021/08/20 15:28:40;;;;;;;10.18;6.07;;;;;;;28.23;42.01;94574.59;5111326;28;20470;-78
2021/08/20 15:31:06;;;;;;;7.03;5.82;;;;;;;28.12;41.86;94578.50;5110330;28;20028;-80
2021/08/20 15:33:32;;;;;;;6.47;5.88;;;;;;;27.95;41.11;94570.97;5075055;28;20030;-79
2021/08/20 15:35:57;;;;;;;6.70;6.15;;;;;;;27.83;41.34;94569.84;5092922;28;20041;-77
2021/08/20 15:38:24;;;;;;;5.55;5.15;;;;;;;27.87;41.44;94565.53;5107963;28;20046;-77
2021/08/20 15:40:50;;;;;;;7.35;6.63;;;;;;;27.86;41.20;94574.59;5110091;28;20028;-85
2021/08/20 15:43:16;;;;;;;10.38;5.97;;;;;;;27.62;41.96;94569.31;5107801;28;20415;-79
2021/08/20 15:45:41;;;;;;;6.57;5.78;;;;;;;27.73;42.39;94576.88;5106238;27;20040;-78
2021/08/20 15:48:07;;;;;;;6.97;5.32;;;;;;;27.68;42.34;94568.94;5104882;28;20032;-76
2021/08/20 15:50:36;;;;;;;5.90;5.32;;;;;;;27.58;42.79;94563.75;5105808;28;20031;-81
2021/08/20 15:53:06;;;;;;;6.25;5.65;;;;;;;27.41;42.79;94574.06;5125875;27;20027;-78
2021/08/20 15:55:31;;;;;;;9.50;6.47;;;;;;;27.42;42.74;94575.63;5091134;28;20519;-80
2021/08/20 15:57:56;;;;;;;6.35;5.40;;;;;;;27.37;43.08;94572.25;5108747;28;20035;-79
2021/08/20 16:00:22;;;;;;;8.02;6.45;;;;;;;27.19;43.06;94577.25;5141315;27;20020;-81
2021/08/20 16:02:47;;;;;;;7.35;6.55;;;;;;;27.14;42.93;94582.63;5091533;28;20562;-78
2021/08/20 16:05:13;;;;;;;6.40;5.90;;;;;;;27.06;43.41;94583.25;5106882;28;20032;-79
2021/08/20 16:07:38;;;;;;;10.95;5.70;;;;;;;27.02;44.18;94587.53;5109767;28;20169;-79
2021/08/20 16:10:04;;;;;;;5.70;5.30;;;;;;;26.94;44.14;94584.72;5088529;28;20027;-76
2021/08/20 16:12:30;;;;;;;6.13;5.63;;;;;;;26.89;44.19;94585.56;5089937;28;20697;-79
2021/08/20 16:14:55;;;;;;;6.85;5.40;;;;;;;26.83;44.44;94577.91;5107309;28;20032;-78
2021/08/20 16:17:21;;;;;;;5.95;5.45;;;;;;;26.69;44.11;94588.38;5105675;28;20024;-76
2021/08/20 16:19:46;;;;;;;5.78;5.28;;;;;;;26.52;44.82;94588.00;5088818;28;20134;-78
2021/08/20 16:22:12;;;;;;;5.72;4.78;;;;;;;26.45;44.30;94590.97;5089434;28;20046;-76
2021/08/20 16:24:37;;;;;;;5.70;5.20;;;;;;;26.31;45.11;94602.50;5108174;28;20044;-78
2021/08/20 16:27:05;;;;;;;6.57;5.95;;;;;;;26.14;45.90;94605.50;5089430;28;20078;-78
2021/08/20 16:29:30;;;;;;;5.30;4.80;;;;;;;26.02;45.02;94607.72;5140651;27;20038;-79
2021/08/20 16:31:56;;;;;;;6.32;5.72;;;;;;;25.93;44.97;94602.19;5121986;27;20086;-78
2021/08/20 16:34:21;;;;;;;6.20;5.70;;;;;;;25.94;45.71;94613.63;5104488;28;20032;-78
2021/08/20 16:36:47;;;;;;;6.32;5.82;;;;;;;25.85;45.44;94609.97;5106857;28;20031;-78
2021/08/20 16:39:12;;;;;;;5.50;4.97;;;;;;;25.80;45.95;94618.72;5086066;28;20035;-78
2021/08/20 16:41:39;;;;;;;5.78;5.28;;;;;;;25.58;45.87;94613.00;5087347;28;20027;-78
2021/08/20 16:44:05;;;;;;;6.00;5.45;;;;;;;25.54;46.53;94617.25;5104985;27;20016;-79
2021/08/20 16:46:30;;;;;;;6.35;5.70;;;;;;;25.28;46.69;94627.13;5090925;28;20039;-80
2021/08/20 16:48:55;;;;;;;6.43;5.15;;;;;;;25.18;46.89;94627.94;5105136;28;20019;-78
2021/08/20 16:51:21;;;;;;;5.85;5.30;;;;;;;25.12;47.65;94623.72;5105655;28;20019;-78
2021/08/20 16:53:46;;;;;;;5.20;4.70;;;;;;;24.95;47.68;94630.38;5107431;28;20020;-78
2021/08/20 16:56:12;;;;;;;5.60;5.10;;;;;;;25.02;47.11;94630.91;5107261;28;20055;-76
2021/08/20 16:58:37;;;;;;;5.57;5.18;;;;;;;24.94;47.12;94631.47;5107530;28;20023;-80
2021/08/20 17:01:03;;;;;;;6.43;5.78;;;;;;;24.83;47.24;94635.16;5071788;28;20488;-78
2021/08/20 17:03:28;;;;;;;6.43;5.63;;;;;;;24.89;47.02;94639.41;5106478;28;20524;-79
2021/08/20 17:05:53;;;;;;;7.85;5.00;;;;;;;24.89;46.90;94634.09;5105985;28;20092;-78
2021/08/20 17:08:19;;;;;;;7.40;5.63;;;;;;;24.72;47.46;94644.16;5108626;28;20024;-81
2021/08/20 17:10:44;;;;;;;6.68;6.07;;;;;;;24.69;47.75;94652.66;5088047;28;20030;-74
2021/08/20 17:13:10;;;;;;;10.38;5.15;;;;;;;24.64;47.84;94645.50;5106280;28;20059;-78
2021/08/20 17:15:35;;;;;;;7.40;6.65;;;;;;;24.66;47.50;94646.81;5106151;28;20043;-73
2021/08/20 17:18:01;;;;;;;7.07;5.93;;;;;;;24.56;47.94;94652.09;5104472;28;20019;-77
2021/08/20 17:20:27;;;;;;;5.63;5.05;;;;;;;24.48;48.22;94644.69;5089400;28;20023;-82
2021/08/20 17:22:52;;;;;;;5.90;5.40;;;;;;;24.32;48.34;94645.75;5088070;28;20019;-79
2021/08/20 17:25:18;;;;;;;6.53;5.82;;;;;;;24.23;48.71;94642.03;5124371;27;20031;-81
2021/08/20 17:27:43;;;;;;;5.55;5.05;;;;;;;24.10;49.13;94642.50;5089412;28;20054;-77
2021/08/20 17:30:10;;;;;;;6.90;5.47;;;;;;;24.19;48.99;94638.31;5089521;28;20030;-81
2021/08/20 17:32:35;;;;;;;6.32;5.68;;;;;;;24.05;49.19;94642.47;5112408;27;20027;-82
2021/08/20 17:35:01;;;;;;;5.80;5.30;;;;;;;24.01;49.45;94652.81;5072273;28;20039;-76
2021/08/20 17:37:27;;;;;;;6.00;5.47;;;;;;;24.06;49.16;94657.31;5090180;28;20024;-80
2021/08/20 17:39:52;;;;;;;7.43;5.75;;;;;;;23.88;50.19;94657.81;5071746;28;20024;-80
2021/08/20 17:42:18;;;;;;;6.68;5.97;;;;;;;23.80;50.12;94674.16;5090021;28;20032;-79
2021/08/20 17:44:43;;;;;;;7.78;6.03;;;;;;;23.69;50.68;94678.66;5105779;28;20042;-80
2021/08/20 17:47:09;;;;;;;8.80;6.75;;;;;;;23.50;51.47;94680.16;5089844;28;20575;-80
2021/08/20 17:49:34;;;;;;;8.02;5.22;;;;;;;23.29;52.25;94681.84;5106545;28;20051;-80
2021/08/20 17:52:00;;;;;;;7.43;5.85;;;;;;;23.10;53.32;94691.25;5106442;28;20023;-80
2021/08/20 17:54:26;;;;;;;7.38;5.30;;;;;;;23.14;53.01;94691.53;5106370;28;20111;-78
2021/08/20 17:56:51;;;;;;;5.88;5.38;;;;;;;22.98;53.12;94699.38;5105097;28;20505;-80
2021/08/20 17:59:17;;;;;;;8.57;6.10;;;;;;;22.94;53.42;94702.75;5107575;28;20028;-79
2021/08/20 18:01:42;;;;;;;6.32;5.80;;;;;;;22.80;54.33;94705.03;5104605;28;20067;-80
2021/08/20 18:04:08;;;;;;;6.30;5.80;;;;;;;22.64;54.65;94708.56;5089745;28;20034;-79
2021/08/20 18:06:33;;;;;;;6.97;5.35;;;;;;;22.54;54.87;94713.75;5106748;28;20051;-77
2021/08/20 18:08:59;;;;;;;10.60;5.50;;;;;;;22.22;55.86;94700.50;5104763;28;20035;-80
2021/08/20 18:11:24;;;;;;;6.30;5.75;;;;;;;22.33;55.87;94728.63;5086304;28;20101;-79
2021/08/20 18:13:50;;;;;;;6.47;5.85;;;;;;;22.27;55.97;94724.34;5105604;28;20027;-77
2021/08/20 18:16:15;;;;;;;5.63;5.15;;;;;;;22.31;55.68;94733.34;5106813;28;20432;-80
2021/08/20 18:18:42;;;;;;;8.35;6.18;;;;;;;22.43;55.29;94728.72;5088251;28;20112;-81
2021/08/20 18:21:07;;;;;;;6.22;5.70;;;;;;;22.51;55.26;94735.38;5124362;27;20024;-79
2021/08/20 18:23:33;;;;;;;5.70;5.30;;;;;;;22.40;55.63;94746.91;5108548;28;20027;-79
2021/08/20 18:25:58;;;;;;;6.15;5.55;;;;;;;22.10;56.95;94744.72;5111030;28;20024;-80
2021/08/20 18:28:24;;;;;;;5.88;5.38;;;;;;;22.11;57.35;94750.78;5093514;28;20072;-81
2021/08/20 18:30:50;;;;;;;6.75;6.15;;;;;;;22.01;57.77;94743.56;5092717;28;20406;-80
2021/08/20 18:33:17;;;;;;;6.38;5.35;;;;;;;21.86;58.00;94752.06;5127381;27;20515;-80
2021/08/20 18:35:43;;;;;;;6.53;5.70;;;;;;;21.89;57.58;94750.81;5108661;28;20112;-78
2021/08/20 18:38:09;;;;;;;5.97;5.47;;;;;;;21.78;58.66;94743.78;5144642;27;20065;-79
2021/08/20 18:40:35;;;;;;;6.03;5.53;;;;;;;21.65;58.65;94742.28;5142430;27;20107;-79
2021/08/20 18:43:00;;;;;;;6.40;5.80;;;;;;;21.49;59.63;94748.41;5109623;28;20980;-80
2021/08/20 18:45:28;;;;;;;6.90;5.50;;;;;;;21.09;61.26;94755.72;5108732;28;20023;-79
2021/08/20 18:47:55;;;;;;;6.25;5.75;;;;;;;21.28;60.89;94764.97;5110505;27;20030;-79
2021/08/20 18:50:21;;;;;;;6.47;5.88;;;;;;;21.22;62.07;94774.66;5111438;27;20162;-80
2021/08/20 18:52:50;;;;;;;6.35;5.85;;;;;;;21.10;62.11;94773.91;5105164;28;20478;-80
2021/08/20 18:55:16;;;;;;;6.40;5.85;;;;;;;21.09;62.40;94769.72;5109871;27;20609;-79
2021/08/20 18:57:41;;;;;;;6.30;5.65;;;;;;;20.94;62.46;94772.84;5091570;28;20118;-80
2021/08/20 19:00:07;;;;;;;6.38;5.78;;;;;;;20.94;62.71;94772.06;5111497;28;20016;-79
2021/08/20 19:02:33;;;;;;;6.22;5.72;;;;;;;20.75;63.33;94779.38;5109150;28;20031;-79
2021/08/20 19:04:58;;;;;;;7.00;6.40;;;;;;;20.48;65.10;94778.41;5109908;28;20035;-80
2021/08/20 19:07:24;;;;;;;7.80;5.95;;;;;;;20.67;64.78;94776.34;5110916;28;20095;-79
2021/08/20 19:09:49;;;;;;;8.43;7.07;;;;;;;20.67;64.87;94778.97;5109126;28;20023;-78
2021/08/20 19:12:15;;;;;;;6.97;6.47;;;;;;;20.13;65.43;94720.59;5144404;27;20052;-79
2021/08/20 19:14:40;;;;;;;6.50;5.68;;;;;;;20.45;66.24;94782.28;5143331;27;20425;-79
2021/08/20 19:17:06;;;;;;;7.53;6.82;;;;;;;20.33;67.32;94789.41;5109780;28;20039;-79
2021/08/20 19:19:31;;;;;;;6.55;5.80;;;;;;;20.14;67.31;94785.34;5108753;28;20061;-79
2021/08/20 19:21:56;;;;;;;9.27;6.97;;;;;;;20.24;67.89;94785.53;5109897;28;20027;-78
2021/08/20 19:24:22;;;;;;;8.45;6.35;;;;;;;20.05;67.07;94763.06;5110251;28;20104;-80
2021/08/20 19:26:47;;;;;;;7.95;6.13;;;;;;;19.90;68.04;94783.81;5092687;28;20035;-79
2021/08/20 19:29:13;;;;;;;8.00;5.65;;;;;;;20.11;67.90;94783.19;5109331;28;20028;-79
2021/08/20 19:31:38;;;;;;;8.13;6.40;;;;;;;20.03;68.34;94783.56;5109525;28;20481;-80
2021/08/20 19:34:04;;;;;;;6.47;5.78;;;;;;;19.92;66.67;94789.63;5108509;28;20081;-79
2021/08/20 19:36:30;;;;;;;6.63;6.07;;;;;;;19.77;67.03;94794.59;5109564;28;20031;-79
2021/08/20 19:38:56;;;;;;;6.43;5.93;;;;;;;19.59;67.23;94786.81;5126544;27;20024;-79